Time;durP1;ratioP1;P1;durP2;ratioP2;P2;SDS_P1;SDS_P2;PMS_P1;PMS_P2;Temp;Humidity;BMP_temperature;BMP_pressure;BME280_temperature;BME280_humidity;BME280_pressure;Samples;Min_cycle;Max_cycle;Signal;HPM_P1;HPM_P2
2021/03/25 00:01:22;;;;;;;108.60;53.23;;;;;;;2.41;85.27;98659.09;1772821;81;21474;-73
2021/03/25 00:03:49;;;;;;;98.35;51.80;;;;;;;2.41;85.21;98658.27;1772815;81;21141;-73
2021/03/25 00:06:15;;;;;;;110.57;55.83;;;;;;;2.40;85.23;98657.97;1772739;81;22126;-73
2021/03/25 00:08:41;;;;;;;106.22;56.60;;;;;;;2.37;85.17;98652.50;1772651;80;21026;-72
2021/03/25 00:11:08;;;;;;;108.60;56.02;;;;;;;2.37;85.23;98651.16;1772799;80;21497;-73
2021/03/25 00:13:34;;;;;;;104.32;55.73;;;;;;;2.38;85.50;98648.79;1772712;80;21096;-73
2021/03/25 00:16:00;;;;;;;122.75;67.62;;;;;;;2.39;85.40;98643.74;1772803;80;21022;-72
2021/03/25 00:18:26;;;;;;;111.52;59.20;;;;;;;2.43;85.49;98652.19;1772752;80;21480;-73
2021/03/25 00:20:53;;;;;;;111.95;59.90;;;;;;;2.39;85.43;98651.77;1772765;81;21066;-73
2021/03/25 00:23:19;;;;;;;115.22;61.50;;;;;;;2.36;85.42;98641.50;1772625;80;21144;-73
2021/03/25 00:25:45;;;;;;;122.37;64.05;;;;;;;2.32;85.44;98640.81;1772840;80;21537;-71
2021/03/25 00:28:13;;;;;;;113.47;57.78;;;;;;;2.36;85.86;98642.84;1772830;80;21129;-71
2021/03/25 00:30:39;;;;;;;124.33;65.92;;;;;;;2.35;85.52;98639.86;1772720;80;22021;-71
2021/03/25 00:33:07;;;;;;;122.60;65.42;;;;;;;2.30;85.83;98638.33;1772670;81;21141;-71
2021/03/25 00:35:33;;;;;;;109.17;58.20;;;;;;;2.34;86.09;98641.41;1772716;80;21089;-71
2021/03/25 00:38:00;;;;;;;105.47;57.50;;;;;;;2.35;86.19;98642.53;1772687;80;21132;-71
2021/03/25 00:40:26;;;;;;;112.57;57.27;;;;;;;2.36;85.78;98638.01;1772741;81;21082;-71
2021/03/25 00:42:52;;;;;;;109.15;60.98;;;;;;;2.36;86.12;98635.33;1772698;80;22073;-71
2021/03/25 00:45:29;;;;;;;97.57;56.15;;;;;;;2.41;86.09;98638.20;1772632;80;21474;-71
2021/03/25 00:47:55;;;;;;;100.78;54.08;;;;;;;2.43;85.89;98627.59;1742112;82;21136;-72
2021/03/25 00:50:37;;;;;;;95.00;50.25;;;;;;;2.46;85.49;98625.00;1772661;81;21031;-72
2021/03/25 00:53:06;;;;;;;92.42;51.70;;;;;;;2.44;85.50;98626.55;1772728;81;21085;-72
2021/03/25 00:55:32;;;;;;;104.32;55.65;;;;;;;2.41;85.58;98626.98;1772903;81;21292;-72
2021/03/25 00:57:58;;;;;;;110.12;55.75;;;;;;;2.43;86.57;98627.59;1772692;80;21112;-72
2021/03/25 01:00:32;;;;;;;113.57;60.60;;;;;;;2.47;86.50;98624.78;1772662;80;21066;-72
2021/03/25 01:02:58;;;;;;;99.80;55.83;;;;;;;2.49;86.66;98624.07;1772697;81;21124;-73
2021/03/25 01:05:25;;;;;;;100.07;52.95;;;;;;;2.47;85.77;98620.77;1772776;80;21045;-73
2021/03/25 01:08:28;;;;;;;112.47;57.53;;;;;;;2.40;85.32;98621.86;1772711;80;21183;-73
2021/03/25 01:11:06;;;;;;;108.60;56.58;;;;;;;2.29;85.15;98624.66;1772774;80;21073;-72
2021/03/25 01:13:46;;;;;;;94.20;52.43;;;;;;;2.22;85.13;98618.02;1772026;80;21423;-73
2021/03/25 01:16:17;;;;;;;95.42;48.25;;;;;;;2.18;85.08;98611.95;1772935;80;21478;-73
2021/03/25 01:18:43;;;;;;;106.37;55.00;;;;;;;2.12;85.09;98613.61;1747026;82;21031;-72
2021/03/25 01:21:09;;;;;;;96.80;51.92;;;;;;;2.11;85.50;98609.30;1747231;82;21498;-72
2021/03/25 01:23:35;;;;;;;102.53;57.60;;;;;;;2.13;85.31;98602.39;1749045;81;21173;-72
2021/03/25 01:26:02;;;;;;;106.22;53.13;;;;;;;2.10;86.18;98612.19;1759297;81;21431;-72
2021/03/25 01:28:28;;;;;;;97.78;51.25;;;;;;;2.11;86.16;98606.62;1759413;81;21530;-72
2021/03/25 01:30:54;;;;;;;92.22;49.83;;;;;;;2.13;86.14;98601.88;1759377;81;21094;-72
2021/03/25 01:33:21;;;;;;;96.50;51.23;;;;;;;2.16;85.69;98601.98;1759269;81;21183;-72
2021/03/25 01:35:47;;;;;;;87.53;46.60;;;;;;;2.17;86.43;98598.28;1759311;81;21500;-72
2021/03/25 01:38:16;;;;;;;84.92;44.65;;;;;;;2.20;86.17;98598.66;1759298;81;21122;-72
2021/03/25 01:40:44;;;;;;;;;;;;;;;2.22;85.97;98597.95;1761854;81;21023;-72
2021/03/25 01:43:25;;;;;;;82.65;44.10;;;;;;;2.23;86.24;98602.79;1763958;81;20235;-72
2021/03/25 01:46:18;;;;;;;85.20;45.28;;;;;;;2.18;85.83;98594.05;1763923;80;21514;-72
2021/03/25 01:48:48;;;;;;;94.97;46.45;;;;;;;2.12;85.79;98590.05;1763896;81;21407;-72
2021/03/25 01:51:31;;;;;;;97.60;48.50;;;;;;;2.07;85.66;98584.02;1763836;80;21510;-72
2021/03/25 01:54:48;;;;;;;99.55;52.75;;;;;;;2.02;87.18;98583.83;1763404;81;21077;-72
2021/03/25 01:58:10;;;;;;;96.75;50.73;;;;;;;2.00;87.44;98581.88;1763888;81;21097;-73
2021/03/25 02:00:53;;;;;;;100.53;49.00;;;;;;;1.96;87.40;98580.12;1763836;80;21218;-72
2021/03/25 02:04:05;;;;;;;94.32;48.42;;;;;;;1.97;86.46;98576.97;1762726;81;21621;-71
2021/03/25 02:06:39;;;;;;;93.17;51.48;;;;;;;1.98;85.81;98577.27;1763820;80;21135;-72
2021/03/25 02:09:16;;;;;;;98.22;51.00;;;;;;;1.96;85.56;98572.11;1763877;81;21769;-72
2021/03/25 02:12:11;;;;;;;93.27;47.58;;;;;;;1.94;85.60;98578.19;1754335;81;21474;-72
2021/03/25 02:14:51;;;;;;;98.90;48.70;;;;;;;1.92;85.71;98571.42;1763807;80;21139;-71
2021/03/25 02:17:31;;;;;;;89.97;44.08;;;;;;;1.93;85.95;98575.22;1763795;81;21521;-71
2021/03/25 02:20:27;;;;;;;94.80;46.13;;;;;;;1.95;85.77;98570.99;1763686;80;21112;-72
2021/03/25 02:23:02;;;;;;;94.85;46.80;;;;;;;1.88;85.73;98568.36;1763038;81;21538;-73
2021/03/25 02:25:41;;;;;;;87.78;43.83;;;;;;;1.88;85.92;98568.85;1763731;79;21496;-72
2021/03/25 02:28:31;;;;;;;;;;;;;;;1.83;86.18;98569.50;1766467;81;21486;-72
2021/03/25 02:31:06;;;;;;;89.50;44.70;;;;;;;1.75;86.91;98565.72;1763823;80;20247;-72
2021/03/25 02:33:32;;;;;;;91.02;43.50;;;;;;;1.78;87.18;98568.48;1763802;81;21077;-73
2021/03/25 02:36:03;;;;;;;89.15;44.42;;;;;;;1.78;85.92;98557.78;1763785;80;21125;-73
2021/03/25 02:38:34;;;;;;;92.15;49.00;;;;;;;1.71;85.90;98560.50;1763863;81;21125;-72
2021/03/25 02:41:06;;;;;;;91.25;49.45;;;;;;;1.65;87.40;98568.01;1763896;80;21201;-72
2021/03/25 02:43:54;;;;;;;87.95;45.12;;;;;;;1.70;87.21;98562.84;1763748;81;21081;-72
2021/03/25 02:46:24;;;;;;;94.47;45.28;;;;;;;1.69;85.97;98562.02;1763811;80;21030;-73
2021/03/25 02:48:52;;;;;;;98.60;50.00;;;;;;;1.63;86.47;98562.88;1733819;81;21088;-73
2021/03/25 02:51:22;;;;;;;88.35;45.48;;;;;;;1.69;86.89;98551.84;1733701;81;21085;-72
2021/03/25 02:53:48;;;;;;;90.00;43.33;;;;;;;1.71;87.61;98559.16;1763843;81;22040;-73
2021/03/25 02:56:34;;;;;;;87.65;41.13;;;;;;;1.73;87.33;98554.94;1763799;80;21065;-73
2021/03/25 02:59:04;;;;;;;90.00;45.65;;;;;;;1.77;86.48;98558.82;1763829;81;21168;-72
2021/03/25 03:01:36;;;;;;;91.37;50.75;;;;;;;1.74;86.54;98558.73;1763789;80;21160;-72
2021/03/25 03:04:07;;;;;;;102.10;47.75;;;;;;;1.77;87.16;98559.64;1763738;81;21160;-71
2021/03/25 03:06:50;;;;;;;100.82;49.48;;;;;;;1.81;86.98;98565.41;1763775;80;21101;-73
2021/03/25 03:09:20;;;;;;;103.62;53.05;;;;;;;1.77;86.97;98560.98;1730352;80;21557;-71
2021/03/25 03:11:48;;;;;;;94.52;49.75;;;;;;;1.76;87.07;98558.52;1763809;81;21085;-72
2021/03/25 03:14:19;;;;;;;84.95;43.75;;;;;;;1.79;87.29;98560.24;1763697;80;21475;-72
2021/03/25 03:16:49;;;;;;;89.10;49.58;;;;;;;1.79;86.34;98560.24;1762653;81;21141;-72
2021/03/25 03:19:32;;;;;;;94.58;45.65;;;;;;;1.69;87.67;98566.03;1733397;80;21509;-73
2021/03/25 03:22:02;;;;;;;97.00;46.90;;;;;;;1.66;87.07;98561.11;1763711;81;21105;-72
2021/03/25 03:24:28;;;;;;;94.25;45.08;;;;;;;1.67;86.35;98568.61;1764658;79;21129;-72
2021/03/25 03:27:05;;;;;;;93.52;47.73;;;;;;;1.64;86.42;98565.03;1748255;82;21096;-72
2021/03/25 03:29:31;;;;;;;99.95;56.37;;;;;;;1.64;86.38;98570.38;1761649;80;21582;-73
2021/03/25 03:32:06;;;;;;;85.15;43.55;;;;;;;1.59;86.40;98570.98;1761684;81;22068;-72
2021/03/25 03:34:37;;;;;;;98.47;47.45;;;;;;;1.58;86.46;98570.69;1761397;80;21229;-73
2021/03/25 03:37:17;;;;;;;105.92;48.33;;;;;;;1.59;86.67;98568.31;1736436;81;21073;-72
2021/03/25 03:39:43;;;;;;;91.82;45.20;;;;;;;1.62;86.46;98567.92;1761578;80;21410;-73
2021/03/25 03:42:16;;;;;;;98.17;44.03;;;;;;;1.64;86.44;98571.20;1761633;81;21137;-73
2021/03/25 03:44:48;;;;;;;97.00;46.23;;;;;;;1.65;86.33;98569.34;1761454;80;22275;-71
2021/03/25 03:47:16;;;;;;;93.75;45.95;;;;;;;1.63;86.76;98569.55;1761629;81;21097;-72
2021/03/25 03:49:53;;;;;;;104.90;49.48;;;;;;;1.63;86.80;98564.22;1761750;80;21046;-72
2021/03/25 03:52:30;;;;;;;92.00;43.60;;;;;;;1.69;87.08;98562.02;1760828;81;21510;-72
2021/03/25 03:54:56;;;;;;;99.75;47.58;;;;;;;1.76;86.88;98557.19;1761567;80;21109;-73
2021/03/25 03:57:39;;;;;;;99.90;53.55;;;;;;;1.73;86.72;98558.95;1761697;81;22238;-71
2021/03/25 04:00:29;;;;;;;104.25;52.10;;;;;;;1.73;86.94;98566.45;1735686;81;21168;-72
2021/03/25 04:03:21;;;;;;;92.80;45.60;;;;;;;1.74;86.32;98572.61;1761698;81;21112;-71
2021/03/25 04:05:56;;;;;;;90.07;43.65;;;;;;;1.65;86.19;98566.16;1761645;80;21158;-72
2021/03/25 04:08:31;;;;;;;101.33;45.12;;;;;;;1.63;86.15;98567.41;1761654;81;21494;-72
2021/03/25 04:11:13;;;;;;;94.55;44.25;;;;;;;1.61;86.18;98563.58;1761614;80;22061;-73
2021/03/25 04:13:44;;;;;;;88.92;40.70;;;;;;;1.58;86.25;98565.86;1761581;81;21133;-71
2021/03/25 04:16:10;;;;;;;85.80;39.78;;;;;;;1.55;86.31;98564.95;1761522;80;21046;-73
2021/03/25 04:18:53;;;;;;;82.27;41.65;;;;;;;1.53;86.30;98566.98;1761612;81;21171;-72
2021/03/25 04:21:24;;;;;;;112.15;51.55;;;;;;;1.51;86.51;98565.86;1761566;80;21074;-72
2021/03/25 04:23:50;;;;;;;102.90;46.10;;;;;;;1.49;87.63;98563.11;1761598;81;21962;-72
2021/03/25 04:26:49;;;;;;;108.15;53.10;;;;;;;1.51;87.68;98559.70;1766745;79;21088;-72
2021/03/25 04:29:22;;;;;;;130.25;61.10;;;;;;;1.58;87.92;98561.34;1758777;81;21129;-72
2021/03/25 04:31:48;;;;;;;110.30;52.05;;;;;;;1.64;87.95;98565.03;1741474;81;21132;-72
2021/03/25 04:34:14;;;;;;;92.75;47.75;;;;;;;1.67;87.30;98556.59;1758596;81;21584;-72
2021/03/25 04:36:42;;;;;;;92.33;46.58;;;;;;;1.69;87.21;98554.52;1764543;81;21202;-72
2021/03/25 04:39:10;;;;;;;169.67;88.53;;;;;;;1.72;87.04;98563.47;1758825;81;21152;-72
2021/03/25 04:41:37;;;;;;;119.80;61.40;;;;;;;1.64;87.80;98567.19;1764609;81;21172;-72
2021/03/25 04:44:07;;;;;;;112.30;60.08;;;;;;;1.63;87.55;98566.06;1758579;81;21120;-72
2021/03/25 04:47:02;;;;;;;123.67;63.55;;;;;;;1.62;87.96;98571.08;1764688;80;21038;-72
2021/03/25 04:49:41;;;;;;;92.97;46.13;;;;;;;1.60;88.09;98569.95;1791740;80;22045;-73
2021/03/25 04:52:09;;;;;;;;;;;;;;;1.58;86.99;98571.20;1766764;81;21522;-72
2021/03/25 04:54:38;;;;;;;102.30;52.45;;;;;;;1.55;87.18;98575.13;1772445;79;20260;-72
2021/03/25 04:57:27;;;;;;;92.22;45.90;;;;;;;1.59;87.54;98575.52;1772976;81;21120;-72
2021/03/25 04:59:55;;;;;;;90.80;44.15;;;;;;;1.64;87.18;98581.06;1773030;79;21426;-73
2021/03/25 05:02:21;;;;;;;86.95;39.58;;;;;;;1.66;87.38;98581.67;1772982;81;21194;-73
2021/03/25 05:04:51;;;;;;;85.05;42.08;;;;;;;1.67;86.58;98582.79;1772715;79;21434;-72
2021/03/25 05:07:25;;;;;;;91.70;41.98;;;;;;;1.68;87.16;98583.09;1758766;81;21096;-72
2021/03/25 05:09:52;;;;;;;88.80;41.70;;;;;;;1.68;86.64;98586.28;1764637;80;21073;-72
2021/03/25 05:12:18;;;;;;;91.28;46.35;;;;;;;1.65;86.65;98585.38;1758796;81;21072;-72
2021/03/25 05:14:45;;;;;;;85.25;41.05;;;;;;;1.62;88.18;98585.28;1764721;80;22266;-72
2021/03/25 05:17:20;;;;;;;87.30;41.35;;;;;;;1.71;87.12;98587.22;1735358;81;21147;-72
2021/03/25 05:20:09;;;;;;;86.37;43.83;;;;;;;1.72;87.20;98589.38;1791635;80;21187;-72
2021/03/25 05:23:09;;;;;;;79.25;42.03;;;;;;;1.79;87.39;98590.16;1764692;81;21132;-72
2021/03/25 05:25:56;;;;;;;78.85;37.83;;;;;;;1.85;87.68;98598.68;1749971;80;21113;-72
2021/03/25 05:28:30;;;;;;;81.35;41.30;;;;;;;1.91;86.88;98589.83;1772884;80;21195;-72
2021/03/25 05:30:56;;;;;;;77.53;38.83;;;;;;;1.82;86.45;98589.23;1772851;80;21085;-72
2021/03/25 05:33:25;;;;;;;85.07;37.67;;;;;;;1.77;86.37;98588.22;1772862;80;21149;-72
2021/03/25 05:36:08;;;;;;;96.67;45.63;;;;;;;1.73;86.19;98587.83;1749211;81;21066;-72
2021/03/25 05:38:35;;;;;;;87.72;41.83;;;;;;;1.72;86.53;98588.03;1773013;81;21459;-72
2021/03/25 05:41:12;;;;;;;82.00;45.45;;;;;;;1.78;86.39;98591.19;1772871;81;21191;-72
2021/03/25 05:44:25;;;;;;;84.22;41.37;;;;;;;1.76;86.59;98589.25;1772821;80;21454;-72
2021/03/25 05:47:22;;;;;;;70.92;37.17;;;;;;;1.80;86.98;98585.96;1772912;80;21046;-72
2021/03/25 05:50:21;;;;;;;82.37;40.70;;;;;;;1.89;86.60;98590.56;1772925;81;21494;-72
2021/03/25 05:53:33;;;;;;;86.70;45.00;;;;;;;1.92;87.18;98588.80;1742266;82;21061;-72
2021/03/25 05:56:08;;;;;;;76.92;39.55;;;;;;;1.94;87.89;98595.56;1772770;80;21306;-72
2021/03/25 05:58:47;;;;;;;74.53;37.70;;;;;;;2.04;87.22;98596.97;1742282;82;21085;-72
2021/03/25 06:01:36;;;;;;;81.80;38.85;;;;;;;2.08;86.79;98598.21;1772902;80;21422;-72
2021/03/25 06:04:15;;;;;;;85.15;44.38;;;;;;;2.12;86.72;98602.09;1772901;80;21093;-72
2021/03/25 06:06:56;;;;;;;81.47;41.13;;;;;;;2.13;87.22;98603.21;1750679;81;21070;-72
2021/03/25 06:09:51;;;;;;;95.32;49.00;;;;;;;2.21;86.95;98606.17;1742322;81;22032;-72
2021/03/25 06:13:00;;;;;;;93.07;50.33;;;;;;;2.20;86.67;98608.02;1772879;80;21117;-72
2021/03/25 06:15:49;;;;;;;86.67;45.70;;;;;;;2.23;86.97;98606.28;1772785;80;21066;-72
2021/03/25 06:19:00;;;;;;;96.63;50.95;;;;;;;2.22;86.36;98611.33;1772857;80;21098;-72
2021/03/25 06:22:05;;;;;;;98.82;52.55;;;;;;;2.21;86.22;98608.84;1772859;80;21110;-72
2021/03/25 06:25:26;;;;;;;106.00;58.52;;;;;;;2.19;86.39;98602.89;1772888;80;21240;-71
2021/03/25 06:28:29;;;;;;;103.60;54.35;;;;;;;2.28;85.97;98599.46;1772743;81;21113;-71
2021/03/25 06:31:28;;;;;;;109.20;52.90;;;;;;;2.34;86.42;98603.97;1742243;81;21140;-72
2021/03/25 06:34:26;;;;;;;98.07;53.48;;;;;;;2.44;86.56;98604.33;1772821;80;21070;-71
2021/03/25 06:37:06;;;;;;;91.28;46.40;;;;;;;2.54;86.71;98606.03;1772108;80;21400;-71
2021/03/25 06:40:18;;;;;;;104.78;46.60;;;;;;;2.60;86.03;98609.71;1742191;81;21188;-72
2021/03/25 06:42:59;;;;;;;90.53;48.45;;;;;;;2.54;85.73;98609.52;1772863;81;21058;-72
2021/03/25 06:45:38;;;;;;;94.22;49.42;;;;;;;2.51;85.72;98608.62;1746218;82;21165;-72
2021/03/25 06:48:13;;;;;;;103.38;53.58;;;;;;;2.47;85.98;98614.59;1747059;82;21507;-73
2021/03/25 06:50:43;;;;;;;97.17;50.98;;;;;;;2.57;86.34;98619.00;1747209;82;21099;-72
2021/03/25 06:53:31;;;;;;;93.10;49.77;;;;;;;2.66;86.37;98617.71;1747238;82;21242;-72
2021/03/25 06:56:07;;;;;;;95.42;51.80;;;;;;;2.69;85.87;98618.61;1747181;82;21090;-71
2021/03/25 06:58:42;;;;;;;99.30;55.75;;;;;;;2.70;85.82;98619.42;1747350;82;21475;-72
2021/03/25 07:01:37;;;;;;;100.92;52.98;;;;;;;2.76;86.12;98621.26;1747255;82;21574;-72
2021/03/25 07:04:08;;;;;;;97.82;50.35;;;;;;;2.78;86.16;98620.00;1747213;82;21070;-71
2021/03/25 07:06:35;;;;;;;93.72;47.75;;;;;;;2.87;85.88;98617.89;1747076;82;21198;-72
2021/03/25 07:09:01;;;;;;;88.15;46.53;;;;;;;2.95;85.51;98616.81;1747114;82;21074;-72
2021/03/25 07:11:29;;;;;;;89.00;46.15;;;;;;;3.02;85.36;98621.09;1747136;82;21479;-72
2021/03/25 07:14:06;;;;;;;81.40;44.25;;;;;;;3.07;85.29;98623.92;1747181;82;21099;-72
2021/03/25 07:16:32;;;;;;;84.70;44.70;;;;;;;3.14;85.49;98619.05;1747030;82;21030;-72
2021/03/25 07:19:13;;;;;;;80.05;44.20;;;;;;;3.27;85.37;98624.31;1747284;82;21195;-72
2021/03/25 07:21:46;;;;;;;99.28;52.48;;;;;;;3.32;84.98;98624.46;1747209;82;21534;-71
2021/03/25 07:24:32;;;;;;;93.03;49.90;;;;;;;3.39;85.04;98621.22;1747147;81;21066;-73
2021/03/25 07:27:06;;;;;;;123.72;77.22;;;;;;;3.48;84.64;98621.24;1755388;80;21106;-71
2021/03/25 07:29:34;;;;;;;120.45;76.80;;;;;;;3.52;84.47;98614.42;1757169;81;21210;-72
2021/03/25 07:32:12;;;;;;;106.85;58.80;;;;;;;3.63;84.54;98613.69;1757643;81;22153;-72
2021/03/25 07:34:48;;;;;;;84.30;48.83;;;;;;;3.80;84.86;98621.17;1757544;81;21070;-72
2021/03/25 07:37:19;;;;;;;85.32;46.53;;;;;;;3.81;83.96;98620.94;1757675;81;21090;-71
2021/03/25 07:39:50;;;;;;;92.20;50.80;;;;;;;3.86;83.87;98624.31;1757593;81;21134;-71
2021/03/25 07:42:30;;;;;;;82.02;44.65;;;;;;;3.93;83.96;98629.91;1757609;81;21118;-71
2021/03/25 07:45:30;;;;;;;74.37;41.48;;;;;;;4.06;83.86;98630.80;1757626;81;21206;-71
2021/03/25 07:48:20;;;;;;;79.90;49.70;;;;;;;4.15;83.72;98634.30;1757578;81;21102;-72
2021/03/25 07:50:47;;;;;;;105.85;55.28;;;;;;;4.18;83.76;98627.66;1757561;81;21064;-71
2021/03/25 07:53:27;;;;;;;64.87;36.05;;;;;;;4.31;83.55;98626.70;1757653;81;21126;-71
2021/03/25 07:56:13;;;;;;;64.27;35.30;;;;;;;4.48;83.45;98629.08;1757630;81;21384;-71
2021/03/25 07:58:43;;;;;;;86.05;46.33;;;;;;;4.52;83.20;98624.36;1757744;81;21194;-71
2021/03/25 08:01:21;;;;;;;67.45;40.28;;;;;;;4.59;82.80;98623.46;1757552;81;21538;-71
2021/03/25 08:03:55;;;;;;;73.10;41.45;;;;;;;4.63;82.24;98624.66;1757866;81;21494;-72
2021/03/25 08:06:31;;;;;;;91.63;53.80;;;;;;;4.63;81.76;98628.17;1757392;81;21044;-72
2021/03/25 08:09:10;;;;;;;64.70;35.75;;;;;;;4.66;81.95;98637.10;1757681;81;21099;-72
2021/03/25 08:12:01;;;;;;;76.80;41.50;;;;;;;4.74;82.02;98636.78;1757787;81;21255;-72
2021/03/25 08:14:33;;;;;;;91.50;54.93;;;;;;;4.88;81.96;98641.47;1757031;81;21130;-71
2021/03/25 08:17:16;;;;;;;77.58;38.85;;;;;;;4.97;79.59;98635.25;1761645;81;21089;-71
2021/03/25 08:20:00;;;;;;;62.75;33.78;;;;;;;5.06;80.04;98635.22;1763670;80;21434;-71
2021/03/25 08:22:55;;;;;;;126.40;57.95;;;;;;;5.15;80.04;98631.69;1762511;81;21479;-71
2021/03/25 08:25:39;;;;;;;62.67;36.08;;;;;;;5.19;80.26;98633.66;1763779;80;21157;-72
2021/03/25 08:28:29;;;;;;;65.05;36.58;;;;;;;5.38;80.22;98632.56;1763805;81;21513;-71
2021/03/25 08:31:06;;;;;;;69.05;36.85;;;;;;;5.46;79.94;98628.69;1763704;80;21060;-71
2021/03/25 08:33:58;;;;;;;73.87;41.30;;;;;;;5.55;79.63;98628.64;1763752;81;21081;-72
2021/03/25 08:36:54;;;;;;;66.15;36.28;;;;;;;5.74;79.58;98633.41;1763827;80;21020;-71
2021/03/25 08:39:44;;;;;;;65.80;39.18;;;;;;;6.00;79.05;98633.49;1763746;80;21258;-71
2021/03/25 08:42:39;;;;;;;75.67;44.65;;;;;;;6.03;76.97;98628.16;1763681;81;21064;-71
2021/03/25 08:45:23;;;;;;;81.97;44.45;;;;;;;6.26;78.00;98628.14;1763696;80;21143;-71
2021/03/25 08:48:09;;;;;;;63.33;35.40;;;;;;;6.43;77.73;98618.80;1763831;81;21129;-72
2021/03/25 08:50:46;;;;;;;59.65;32.85;;;;;;;6.58;77.32;98626.34;1763828;80;21088;-71
2021/03/25 08:53:39;;;;;;;72.15;39.00;;;;;;;6.70;76.65;98625.80;1748467;81;21194;-72
2021/03/25 08:56:27;;;;;;;70.05;38.70;;;;;;;6.74;76.92;98621.55;1763616;80;21037;-71
2021/03/25 08:58:56;;;;;;;58.75;34.40;;;;;;;6.92;77.18;98624.08;1763448;81;21487;-71
2021/03/25 09:01:30;;;;;;;55.03;33.13;;;;;;;6.94;72.17;98621.95;1727742;82;21077;-71
2021/03/25 09:03:59;;;;;;;58.73;34.63;;;;;;;7.04;73.97;98624.83;1763037;81;21502;-70
2021/03/25 09:06:32;;;;;;;78.57;43.05;;;;;;;7.14;74.06;98625.53;1764070;80;21197;-72
2021/03/25 09:09:37;;;;;;;170.05;78.07;;;;;;;7.28;74.12;98623.36;1738509;81;21526;-72
2021/03/25 09:12:20;;;;;;;65.15;38.92;;;;;;;7.35;73.38;98621.33;1763958;81;21125;-72
2021/03/25 09:14:46;;;;;;;56.25;30.20;;;;;;;7.35;71.38;98619.45;1738206;81;21102;-71
2021/03/25 09:17:20;;;;;;;54.95;27.93;;;;;;;7.48;71.65;98616.13;1738455;81;21038;-71
2021/03/25 09:19:53;;;;;;;55.92;30.90;;;;;;;7.57;70.76;98616.82;1764080;80;21128;-72
2021/03/25 09:22:47;;;;;;;48.15;29.57;;;;;;;7.54;68.47;98615.16;1764034;81;21498;-71
2021/03/25 09:25:31;;;;;;;62.20;33.25;;;;;;;7.40;67.25;98609.27;1763945;80;21522;-72
2021/03/25 09:28:08;;;;;;;57.60;32.25;;;;;;;7.37;65.49;98608.95;1752461;81;21112;-71
2021/03/25 09:30:46;;;;;;;65.12;39.83;;;;;;;7.54;62.91;98605.72;1751693;80;21525;-72
2021/03/25 09:33:49;;;;;;;66.60;40.38;;;;;;;7.74;62.87;98598.46;1751540;81;21191;-71
2021/03/25 09:36:24;;;;;;;54.30;30.70;;;;;;;7.86;61.05;98600.52;1751006;80;21637;-72
2021/03/25 09:39:05;;;;;;;54.75;35.43;;;;;;;7.72;56.19;98600.59;1751869;81;21071;-71
2021/03/25 09:41:37;;;;;;;67.08;41.45;;;;;;;7.91;60.55;98600.07;1751808;80;21112;-71
2021/03/25 09:44:17;;;;;;;55.35;31.87;;;;;;;7.79;56.38;98597.20;1751874;82;21085;-71
2021/03/25 09:46:53;;;;;;;55.00;32.88;;;;;;;7.74;56.73;98594.41;1751781;82;21275;-71
2021/03/25 09:49:28;;;;;;;53.23;33.23;;;;;;;7.90;59.17;98598.97;1751710;80;21105;-71
2021/03/25 09:52:12;;;;;;;53.50;31.65;;;;;;;8.13;60.71;98592.55;1751747;81;21058;-72
2021/03/25 09:55:03;;;;;;;51.60;31.10;;;;;;;8.31;61.02;98597.64;1751814;80;21058;-72
2021/03/25 09:57:35;;;;;;;50.43;27.05;;;;;;;8.41;60.97;98595.09;1751771;81;21085;-72
2021/03/25 10:00:18;;;;;;;61.40;34.25;;;;;;;8.41;58.76;98595.09;1751820;80;21140;-72
2021/03/25 10:02:53;;;;;;;48.50;28.67;;;;;;;8.17;60.57;98594.48;1749389;82;21098;-70
2021/03/25 10:05:28;;;;;;;78.37;35.50;;;;;;;8.21;59.41;98593.47;1751725;80;21506;-72
2021/03/25 10:08:01;;;;;;;55.90;33.25;;;;;;;8.38;61.25;98590.21;1744688;82;21446;-71
2021/03/25 10:10:57;;;;;;;50.10;30.88;;;;;;;8.55;60.94;98589.33;1751758;80;21078;-71
2021/03/25 10:13:40;;;;;;;50.28;29.55;;;;;;;8.65;60.97;98590.78;1751736;82;21195;-72
2021/03/25 10:16:28;;;;;;;48.52;30.43;;;;;;;8.78;59.98;98589.02;1751760;80;21134;-72
2021/03/25 10:18:55;;;;;;;48.68;29.35;;;;;;;8.79;57.93;98586.59;1751888;82;21503;-70
2021/03/25 10:22:01;;;;;;;48.73;30.43;;;;;;;9.00;59.21;98587.64;1751690;80;21043;-70
2021/03/25 10:24:38;;;;;;;46.40;27.32;;;;;;;9.04;57.24;98584.16;1751716;80;21090;-72
2021/03/25 10:27:30;;;;;;;44.80;28.00;;;;;;;8.98;55.74;98588.44;1756739;81;21150;-71
2021/03/25 10:29:57;;;;;;;50.78;29.67;;;;;;;8.78;52.59;98581.45;1763952;80;21133;-72
2021/03/25 10:32:31;;;;;;;52.15;29.02;;;;;;;8.82;53.65;98579.36;1758761;81;21446;-72
2021/03/25 10:35:00;;;;;;;51.83;30.97;;;;;;;8.69;52.34;98583.80;1764494;80;21109;-71
2021/03/25 10:37:37;;;;;;;48.38;28.62;;;;;;;8.75;54.59;98582.79;1758799;81;21494;-72
2021/03/25 10:40:37;;;;;;;51.48;30.35;;;;;;;8.73;55.22;98580.88;1764694;80;21400;-71
2021/03/25 10:43:17;;;;;;;49.67;28.85;;;;;;;8.58;51.51;98578.01;1758612;81;21061;-71
2021/03/25 10:45:52;;;;;;;46.58;26.90;;;;;;;8.58;51.51;98578.01;1764580;80;21033;-71
2021/03/25 10:48:30;;;;;;;44.05;28.42;;;;;;;8.41;51.36;98570.80;1791533;80;21100;-72
2021/03/25 10:51:15;;;;;;;49.95;30.52;;;;;;;8.41;51.36;98570.80;1764611;80;21117;-72
2021/03/25 10:53:52;;;;;;;43.95;26.65;;;;;;;8.64;53.94;98575.66;1758669;81;21190;-73
2021/03/25 10:56:33;;;;;;;47.20;29.95;;;;;;;8.36;50.76;98569.91;1764544;80;21085;-71
2021/03/25 10:59:19;;;;;;;58.13;30.90;;;;;;;8.56;54.70;98566.11;1791697;80;21481;-72
2021/03/25 11:01:56;;;;;;;76.25;43.75;;;;;;;8.56;54.70;98566.11;1767880;80;21201;-72
2021/03/25 11:04:28;;;;;;;47.25;29.15;;;;;;;8.53;54.26;98564.42;1767976;80;21459;-71
2021/03/25 11:06:54;;;;;;;55.17;29.95;;;;;;;8.70;56.08;98563.81;1767850;80;21118;-71
2021/03/25 11:09:27;;;;;;;65.87;39.20;;;;;;;8.92;55.12;98561.88;1754785;81;21114;-71
2021/03/25 11:12:11;;;;;;;51.95;31.15;;;;;;;8.81;55.13;98567.45;1767859;81;21019;-72
2021/03/25 11:14:44;;;;;;;56.08;30.60;;;;;;;8.81;55.39;98566.92;1767918;80;21440;-72
2021/03/25 11:17:24;;;;;;;62.70;35.35;;;;;;;8.88;55.22;98559.94;1767605;80;21477;-72
2021/03/25 11:19:53;;;;;;;52.70;30.12;;;;;;;8.92;54.53;98553.78;1767901;80;21248;-72
2021/03/25 11:22:19;;;;;;;93.37;37.73;;;;;;;8.87;52.40;98555.60;1767809;81;21509;-72
2021/03/25 11:24:45;;;;;;;106.87;35.90;;;;;;;8.79;53.20;98555.52;1767849;81;21208;-72
2021/03/25 11:27:22;;;;;;;58.15;35.38;;;;;;;8.75;53.29;98551.72;1761398;81;21165;-72
2021/03/25 11:29:51;;;;;;;48.90;31.00;;;;;;;8.71;54.43;98553.28;1747210;82;21070;-71
2021/03/25 11:32:20;;;;;;;;;;;;;;;8.81;54.18;98545.30;1725432;82;22262;-71
2021/03/25 11:34:50;;;;;;;84.90;43.08;;;;;;;8.94;54.35;98542.70;1755970;80;20606;-72
2021/03/25 11:37:31;;;;;;;;;;;;;;;8.99;53.04;98540.88;1758515;81;21156;-72
2021/03/25 11:40:03;;;;;;;65.35;36.68;;;;;;;9.05;52.43;98538.47;1756053;80;20253;-71
2021/03/25 11:42:31;;;;;;;60.40;33.28;;;;;;;8.80;50.92;98532.83;1756055;81;21082;-72
2021/03/25 11:44:57;;;;;;;197.25;82.20;;;;;;;8.78;51.59;98535.52;1740456;82;21287;-70
2021/03/25 11:47:46;;;;;;;67.30;33.35;;;;;;;9.05;53.67;98524.95;1772758;80;21042;-70
2021/03/25 11:50:20;;;;;;;45.92;25.95;;;;;;;9.44;52.96;98530.14;1772832;80;21117;-71
2021/03/25 11:52:53;;;;;;;56.68;31.33;;;;;;;9.56;51.32;98528.59;1742127;82;21517;-71
2021/03/25 11:55:42;;;;;;;55.88;33.08;;;;;;;9.50;50.58;98527.77;1772755;80;21513;-71
2021/03/25 11:58:16;;;;;;;52.67;31.40;;;;;;;9.35;52.40;98520.06;1772714;81;22100;-72
2021/03/25 12:01:18;;;;;;;82.17;36.20;;;;;;;9.26;50.22;98525.14;1772766;81;21446;-71
2021/03/25 12:03:54;;;;;;;67.65;33.90;;;;;;;9.48;52.25;98512.30;1772815;80;21082;-72
2021/03/25 12:06:31;;;;;;;63.87;35.75;;;;;;;9.57;50.93;98512.12;1768968;81;21466;-71
2021/03/25 12:09:14;;;;;;;61.08;36.55;;;;;;;9.80;52.03;98519.00;1739590;82;21074;-71
2021/03/25 12:11:43;;;;;;;52.83;35.28;;;;;;;10.08;52.44;98511.03;1742052;82;22021;-71
2021/03/25 12:14:09;;;;;;;52.65;34.48;;;;;;;10.31;51.11;98512.48;1742020;82;21121;-71